Ely Municipal Airport Ely US
ICAO: KELO
IATA: ELO
Category: Medium
Scheduled Services: No

Elevation: 1456 ft
TransAlt. 18000 ft.

Airport Communications:
AWOS 3:132.025
PRINCETON RDO:109.6
CTAF/UNICOM:122.8

KELO Zoom In..

If you have problems with the map follow the link
https://www.worldairports.se/pages/airport.php?
ICAO=KELO

Runways:

(A) RW 12 length 5596 ft width 100 ft
---- / hdg 120

(B) RW 30 length 5596 ft width 100 ft
---- / hdg 300

Location; KELO
Day. 24 / Time. 10.56 Zulu
* Altimeter: 30.13
* Temperature: 00° c. 32°f.
* Wind from: 030° Speed 06 kn.
Dewpoint: -04° c.
Visibility: 10 Statute Miles.
Clouds: Overcast 1900 ft.

KELO 241056Z AUTO 03006KT 10SM OVC019 00/M04 A3013 RMK AO2


Wind From 030°
Speed 06 kn.

 
 
jpsmedia.com for Web Design worldairports.se 2019   terms of use